Private Wetterstation Nrnberg - Katzwang
Wetterdaten: August 2010
Datum Temp. A. Feuchte A. Luftdruck Regen Wind Richtung Taupunkt Windchill Windben
01.08.2010 23,1 C 62 % 1013 hPa 0,0 l/m 0,7 km/h N-NO 14,8 C 23,1 C 1,7 km/h
02.08.2010 19,7 C 87 % 1013 hPa 12,4 l/m 0,0 km/h NO 17,5 C 19,7 C 1,0 km/h
03.08.2010 18,0 C 75 % 1013 hPa 1,0 l/m 6,3 km/h W-NW 13,4 C 17,0 C 7,3 km/h
04.08.2010 18,1 C 72 % 1009 hPa 0,0 l/m 4,1 km/h NO 12,7 C 17,5 C 5,1 km/h
05.08.2010 16,5 C 84 % 1007 hPa 16,1 l/m 2,7 km/h W-NW 13,7 C 16,3 C 3,8 km/h
06.08.2010 14,1 C 95 % 1013 hPa 51,3 l/m 2,9 km/h W-NW 13,3 C 13,9 C 3,9 km/h
07.08.2010 17,5 C 78 % 1016 hPa 2,6 l/m 0,9 km/h W-NW 13,4 C 17,5 C 1,9 km/h
08.08.2010 17,2 C 83 % 1015 hPa 1,6 l/m 6,7 km/h O-NO 14,0 C 17,0 C 7,7 km/h
09.08.2010 17,8 C 77 % 1016 hPa 0,5 l/m 0,0 km/h N-NO 13,7 C 17,8 C 1,0 km/h
10.08.2010 20,0 C 70 % 1014 hPa 0,0 l/m 2,4 km/h O-NO 13,8 C 20,0 C 3,4 km/h
11.08.2010 20,3 C 77 % 1013 hPa 0,0 l/m 1,2 km/h NO 15,9 C 20,3 C 2,2 km/h
12.08.2010 18,8 C 90 % 1012 hPa 17,1 l/m 2,2 km/h NO 17,1 C 18,5 C 3,2 km/h
13.08.2010 17,5 C 88 % 1015 hPa 10,4 l/m 1,4 km/h O-NO 15,3 C 17,5 C 2,4 km/h
14.08.2010 17,8 C 79 % 1013 hPa 0,0 l/m 7,5 km/h NO 13,9 C 16,4 C 8,5 km/h
15.08.2010 19,1 C 73 % 1009 hPa 0,0 l/m 0,9 km/h W-NW 14,1 C 19,1 C 1,9 km/h
16.08.2010 16,2 C 77 % 1010 hPa 0,0 l/m 11,1 km/h W-NW 12,0 C 14,2 C 17,6 km/h
17.08.2010 14,7 C 86 % 1010 hPa 7,3 l/m 13,5 km/h W-NW 12,4 C 11,9 C 16,6 km/h
18.08.2010 16,5 C 81 % 1009 hPa 0,0 l/m 0,5 km/h W-NW 13,2 C 16,5 C 1,5 km/h
19.08.2010 17,1 C 71 % 1016 hPa 0,0 l/m 3,4 km/h W-NW 11,4 C 16,7 C 4,4 km/h
20.08.2010 19,4 C 72 % 1020 hPa 0,0 l/m 2,6 km/h NO 13,9 C 19,2 C 3,6 km/h
21.08.2010 21,8 C 73 % 1021 hPa 0,0 l/m 3,3 km/h O-NO 16,4 C 21,6 C 4,3 km/h
22.08.2010 24,2 C 67 % 1015 hPa 0,0 l/m 3,6 km/h W-NW 17,2 C 24,2 C 4,6 km/h
23.08.2010 20,4 C 86 % 1007 hPa 5,7 l/m 3,8 km/h NO 17,9 C 19,9 C 4,8 km/h
24.08.2010 18,3 C 81 % 1010 hPa 8,8 l/m 4,4 km/h W-NW 14,9 C 18,2 C 5,4 km/h
25.08.2010 16,7 C 73 % 1016 hPa 0,0 l/m 1,9 km/h W-NW 11,5 C 16,7 C 2,9 km/h
26.08.2010 22,5 C 72 % 1010 hPa 0,0 l/m 3,9 km/h W-NW 16,8 C 22,3 C 4,9 km/h
27.08.2010 19,2 C 82 % 1004 hPa 11,4 l/m 3,3 km/h W-NW 15,9 C 18,7 C 6,5 km/h
28.08.2010 14,1 C 77 % 1014 hPa 2,1 l/m 2,6 km/h W-NW 9,8 C 14,0 C 3,6 km/h
29.08.2010 13,9 C 75 % 1013 hPa 1,6 l/m 6,0 km/h W-NW 9,3 C 13,2 C 10,1 km/h
30.08.2010 10,3 C 86 % 1009 hPa 14,5 l/m 7,6 km/h W-NW 8,1 C 9,4 C 8,6 km/h
31.08.2010 11,3 C 90 % 1018 hPa 7,8 l/m 3,4 km/h W-NW 9,7 C 11,1 C 4,4 km/h
Min-Datum 30.08.10 01.08.10 23.08.10 17 Tage 01.08.10 - 30.08.10 30.08.10 01.08.10
Min-Zeit 11:10 15:30 20:00 - 00:00 - 10:50 09:10 00:00
Minimum 8,1 C 36 % 1004 hPa - 0,0 km/h - 6,4 C 2,8 C 1,0 km/h
Max-Datum 22.08.10 07.08.10 21.08.10 06.08.10 15.08.10 - 22.08.10 22.08.10 30.08.10
Max-Zeit 15:00 03:20 08:10 10:50 16:20 - 13:10 15:00 15:10
Maximum 32,3 C 96 % 1024 hPa 51,3 l/m 40,4 km/h
W-NW
- 20,7 C 32,3 C 59,8 km/h
W-NW
Durchschnitt 17,8 C 79 % 1013 hPa #172,0 l/m 3,7 km/h W-NW 13,8 C 17,4 C 5,1 km/h

Durchschnitt Minimum Temp.13,8 C
Durchschnitt Maximum Temp.22,8 C